Time;durP1;ratioP1;P1;durP2;ratioP2;P2;SDS_P1;SDS_P2;PMS_P1;PMS_P2;Temp;Humidity;BMP_temperature;BMP_pressure;BME280_temperature;BME280_humidity;BME280_pressure;Samples;Min_cycle;Max_cycle;Signal;HPM_P1;HPM_P2
2022/04/14 00:00:18;;;;;;;12.02;8.88;;;;;;;10.86;96.28;101876.13;2087032;28;45138;-68
2022/04/14 00:01:19;;;;;;;13.15;9.00;;;;;;;10.87;96.27;101877.88;2087135;28;44202;-68
2022/04/14 00:02:21;;;;;;;11.70;9.18;;;;;;;10.88;96.40;101885.03;2088124;28;20119;-68
2022/04/14 00:03:23;;;;;;;14.02;9.02;;;;;;;10.86;96.23;101876.13;2088078;28;42143;-69
2022/04/14 00:04:27;;;;;;;13.63;9.15;;;;;;;10.83;96.50;101882.38;2088626;28;20037;-68
2022/04/14 00:05:28;;;;;;;10.18;8.10;;;;;;;10.82;95.56;101885.06;2087396;28;45076;-69
2022/04/14 00:06:30;;;;;;;13.88;9.23;;;;;;;10.83;96.12;101886.88;2086802;28;43494;-69
2022/04/14 00:07:32;;;;;;;12.15;8.80;;;;;;;10.80;96.72;101879.75;2087212;28;40848;-69
2022/04/14 00:08:33;;;;;;;11.43;9.40;;;;;;;10.81;96.06;101876.16;2087792;28;43315;-69
2022/04/14 00:09:36;;;;;;;12.35;9.27;;;;;;;10.79;95.78;101879.78;2087817;28;45120;-69
2022/04/14 00:10:38;;;;;;;12.27;9.20;;;;;;;10.80;96.18;101882.44;2087294;28;46307;-68
2022/04/14 00:11:40;;;;;;;12.30;9.70;;;;;;;10.79;96.51;101885.13;2087700;28;44834;-69
2022/04/14 00:12:42;;;;;;;13.43;10.27;;;;;;;10.78;96.27;101891.38;2087378;28;45158;-69
2022/04/14 00:13:44;;;;;;;12.75;9.50;;;;;;;10.77;96.44;101877.09;2086770;28;46183;-68
2022/04/14 00:14:46;;;;;;;19.33;9.80;;;;;;;10.77;96.80;101885.13;2078640;28;43943;-69
2022/04/14 00:15:47;;;;;;;19.10;9.80;;;;;;;10.76;96.27;101887.81;2086705;28;44810;-69
2022/04/14 00:16:50;;;;;;;12.48;9.48;;;;;;;10.78;96.96;101883.34;2088640;28;20927;-68
2022/04/14 00:17:52;;;;;;;15.15;9.88;;;;;;;10.76;96.57;101877.09;2087834;28;31400;-68
2022/04/14 00:18:54;;;;;;;13.10;9.43;;;;;;;10.73;96.44;101886.06;2087253;28;44580;-69
2022/04/14 00:19:55;;;;;;;15.20;9.77;;;;;;;10.74;96.59;101881.59;2087884;28;45039;-68
2022/04/14 00:20:57;;;;;;;13.02;9.20;;;;;;;10.76;96.79;101882.47;2087107;28;44794;-69
2022/04/14 00:21:59;;;;;;;15.50;9.13;;;;;;;10.73;96.79;101890.53;2087833;28;20038;-68
2022/04/14 00:23:00;;;;;;;14.60;10.40;;;;;;;10.74;96.58;101889.63;2087831;28;45161;-69
2022/04/14 00:24:05;;;;;;;17.10;10.27;;;;;;;10.70;96.80;101884.28;2087409;28;46161;-68
2022/04/14 00:25:07;;;;;;;13.35;9.00;;;;;;;10.68;96.62;101887.91;2089025;28;20044;-69
2022/04/14 00:26:09;;;;;;;12.85;9.73;;;;;;;10.70;96.91;101880.72;2087218;28;42829;-68
2022/04/14 00:27:10;;;;;;;17.73;10.43;;;;;;;10.71;97.06;101890.53;2087929;28;44267;-69
2022/04/14 00:28:12;;;;;;;17.98;11.18;;;;;;;10.72;97.17;101891.44;2087772;28;20797;-69
2022/04/14 00:29:16;;;;;;;12.77;9.57;;;;;;;10.67;96.92;101884.31;2086532;28;46669;-68
2022/04/14 00:30:18;;;;;;;15.75;10.25;;;;;;;10.68;96.96;101893.25;2087780;28;43364;-69
2022/04/14 00:31:19;;;;;;;16.08;10.32;;;;;;;10.67;96.81;101889.66;2087440;28;45527;-69
2022/04/14 00:32:23;;;;;;;18.73;10.68;;;;;;;10.68;96.76;101890.56;2087576;28;44634;-68
2022/04/14 00:33:26;;;;;;;17.63;10.25;;;;;;;10.65;97.13;101893.25;2087691;28;45211;-69
2022/04/14 00:34:28;;;;;;;15.13;10.23;;;;;;;10.65;97.28;101890.59;2086930;28;44759;-68
2022/04/14 00:35:29;;;;;;;14.75;9.63;;;;;;;10.63;96.96;101890.59;2086619;28;42386;-69
2022/04/14 00:36:33;;;;;;;14.23;10.88;;;;;;;10.64;97.46;101881.69;2087580;28;40432;-69
2022/04/14 00:37:34;;;;;;;15.35;10.52;;;;;;;10.65;97.16;101887.91;2086757;28;46014;-69
2022/04/14 00:38:37;;;;;;;16.95;10.80;;;;;;;10.63;97.25;101893.28;2086723;28;44946;-69
2022/04/14 00:39:39;;;;;;;15.80;10.82;;;;;;;10.64;97.65;101886.13;2087089;28;46508;-69
2022/04/14 00:40:40;;;;;;;16.80;10.80;;;;;;;10.62;97.39;101882.56;2087234;28;43258;-68
2022/04/14 00:41:42;;;;;;;15.02;10.73;;;;;;;10.62;97.20;101883.47;2086634;28;43899;-68
2022/04/14 00:42:44;;;;;;;13.20;10.02;;;;;;;10.59;97.25;101888.84;2078734;28;43700;-69
2022/04/14 00:43:52;;;;;;;15.23;11.23;;;;;;;10.59;97.34;101882.63;2086900;28;45116;-69
2022/04/14 00:44:54;;;;;;;13.15;9.70;;;;;;;10.58;97.05;101889.75;2087308;28;46341;-69
2022/04/14 00:45:57;;;;;;;16.52;10.25;;;;;;;10.55;96.71;101884.44;2088015;28;35086;-68
2022/04/14 00:46:58;;;;;;;13.13;9.25;;;;;;;10.55;96.92;101879.06;2087776;28;45736;-68
2022/04/14 00:48:01;;;;;;;15.02;10.63;;;;;;;10.55;97.61;101878.16;2086213;28;46051;-68
2022/04/14 00:49:03;;;;;;;18.13;10.90;;;;;;;10.53;97.35;101877.28;2078965;28;42616;-68
2022/04/14 00:50:05;;;;;;;18.80;11.10;;;;;;;10.53;97.01;101878.16;2078998;28;44293;-69
2022/04/14 00:51:07;;;;;;;15.25;10.85;;;;;;;10.53;97.22;101877.28;2086662;28;36243;-69
2022/04/14 00:52:09;;;;;;;15.75;10.23;;;;;;;10.50;97.03;101878.22;2087250;28;42806;-69
2022/04/14 00:53:14;;;;;;;17.08;11.20;;;;;;;10.50;97.37;101875.53;2088400;28;20122;-69
2022/04/14 00:54:16;;;;;;;12.82;9.98;;;;;;;10.49;96.99;101876.41;2087695;28;43592;-69
2022/04/14 00:55:18;;;;;;;17.65;11.02;;;;;;;10.49;97.20;101877.31;2086929;28;33220;-69
2022/04/14 00:56:20;;;;;;;14.10;10.68;;;;;;;10.49;97.43;101879.09;2086667;28;44308;-69
2022/04/14 00:57:21;;;;;;;19.80;11.10;;;;;;;10.48;97.55;101880.00;2086421;28;44506;-68
2022/04/14 00:58:23;;;;;;;16.50;11.32;;;;;;;10.47;97.49;101878.22;2086729;28;44788;-67
2022/04/14 00:59:26;;;;;;;13.85;10.57;;;;;;;10.47;97.43;101875.56;2086465;28;42542;-68
2022/04/14 01:00:28;;;;;;;18.73;11.43;;;;;;;10.48;97.73;101882.66;2087957;28;44046;-67
2022/04/14 01:01:29;;;;;;;15.75;11.63;;;;;;;10.46;97.48;101881.78;2088197;28;43306;-68
2022/04/14 01:02:32;;;;;;;16.38;10.88;;;;;;;10.45;97.55;101877.34;2088778;28;44254;-68
2022/04/14 01:03:35;;;;;;;16.85;11.50;;;;;;;10.43;97.63;101876.47;2088433;28;46211;-68
2022/04/14 01:04:38;;;;;;;16.95;11.45;;;;;;;10.41;97.14;101871.13;2088943;28;43010;-68
2022/04/14 01:05:42;;;;;;;14.65;10.45;;;;;;;10.40;97.24;101873.81;2088443;28;44117;-68
2022/04/14 01:06:47;;;;;;;16.33;12.05;;;;;;;10.41;97.57;101872.91;2088839;28;45769;-68
2022/04/14 01:07:51;;;;;;;11.93;9.88;;;;;;;10.40;97.47;101876.50;2088590;28;44895;-68
2022/04/14 01:10:14;;;;;;;17.00;11.23;;;;;;;10.38;97.92;101868.47;2089021;28;36947;-68
2022/04/14 01:11:19;;;;;;;18.35;11.40;;;;;;;10.38;97.65;101862.25;2089084;28;43792;-68
2022/04/14 01:12:22;;;;;;;14.82;10.93;;;;;;;10.35;97.82;101863.13;2087935;28;45656;-68
2022/04/14 01:13:24;;;;;;;13.73;11.25;;;;;;;10.38;98.10;101862.25;2088079;28;42241;-69
2022/04/14 01:14:39;;;;;;;16.40;11.30;;;;;;;10.35;97.56;101856.91;2088917;28;20072;-68
2022/04/14 01:15:41;;;;;;;15.63;10.30;;;;;;;10.30;97.52;101860.47;2088791;28;44287;-68
2022/04/14 01:16:45;;;;;;;14.23;9.95;;;;;;;10.28;97.88;101862.28;2089585;28;20030;-68
2022/04/14 01:17:49;;;;;;;13.73;10.68;;;;;;;10.28;97.75;101856.91;2088853;28;46453;-68
2022/04/14 01:18:50;;;;;;;14.88;10.55;;;;;;;10.26;97.43;101855.13;2088754;28;43556;-68
2022/04/14 01:19:54;;;;;;;13.55;9.52;;;;;;;10.23;97.95;101856.06;2089432;28;20135;-68
2022/04/14 01:20:56;;;;;;;15.65;9.60;;;;;;;10.21;97.37;101857.88;2088304;28;38589;-68
2022/04/14 01:22:15;;;;;;;14.70;10.65;;;;;;;10.20;97.92;101861.41;2088430;28;43906;-68
2022/04/14 01:23:24;;;;;;;14.57;10.15;;;;;;;10.18;97.22;101859.66;2088381;28;46353;-68
2022/04/14 01:24:26;;;;;;;21.63;11.95;;;;;;;10.20;97.83;101855.19;2088170;28;41646;-69
2022/04/14 01:25:28;;;;;;;19.50;10.75;;;;;;;10.19;97.87;101856.97;2087846;28;45135;-68
2022/04/14 01:26:30;;;;;;;12.40;9.55;;;;;;;10.17;97.52;101856.09;2087813;28;45552;-68
2022/04/14 01:27:32;;;;;;;14.77;11.48;;;;;;;10.18;97.75;101854.31;2088927;28;31890;-68
2022/04/14 01:28:34;;;;;;;14.88;10.88;;;;;;;10.16;97.48;101857.00;2088442;28;46168;-68
2022/04/14 01:29:36;;;;;;;16.60;10.82;;;;;;;10.16;97.71;101851.66;2088749;28;43250;-68
2022/04/14 01:30:38;;;;;;;15.70;11.40;;;;;;;10.18;97.80;101855.19;2088195;28;44246;-68
2022/04/14 01:31:40;;;;;;;17.75;11.15;;;;;;;10.19;97.96;101851.59;2088181;28;44369;-68
2022/04/14 01:32:42;;;;;;;17.70;11.73;;;;;;;10.17;98.26;101852.53;2088697;28;42294;-68
2022/04/14 01:33:43;;;;;;;17.52;10.60;;;;;;;10.16;97.97;101851.66;2088279;28;43928;-68
2022/04/14 01:34:46;;;;;;;14.48;11.05;;;;;;;10.15;98.23;101857.88;2087968;28;43423;-68
2022/04/14 01:35:48;;;;;;;16.08;11.05;;;;;;;10.15;97.70;101851.66;2088279;28;45166;-68
2022/04/14 01:36:49;;;;;;;16.15;10.63;;;;;;;10.14;97.47;101853.44;2088328;28;46585;-69
2022/04/14 01:37:51;;;;;;;17.65;10.95;;;;;;;10.13;98.22;101852.53;2088888;28;41154;-68
2022/04/14 01:38:53;;;;;;;17.35;10.85;;;;;;;10.13;97.57;101852.53;2088182;28;45596;-68
2022/04/14 01:39:54;;;;;;;16.65;11.50;;;;;;;10.12;98.20;101848.09;2088226;28;45745;-69
2022/04/14 01:40:56;;;;;;;16.38;10.80;;;;;;;10.11;97.52;101850.78;2087645;28;45497;-68
2022/04/14 01:41:58;;;;;;;15.05;10.65;;;;;;;10.13;98.29;101857.00;2087862;28;43237;-68
2022/04/14 01:43:01;;;;;;;15.57;11.15;;;;;;;10.11;98.44;101851.66;2087995;28;43501;-68
2022/04/14 01:44:03;;;;;;;16.77;11.25;;;;;;;10.10;98.37;101857.94;2088523;28;45494;-67
2022/04/14 01:45:09;;;;;;;15.82;11.18;;;;;;;10.09;97.61;101850.78;2088356;28;45623;-68
2022/04/14 01:46:11;;;;;;;18.42;12.13;;;;;;;10.10;98.41;101847.22;2088645;28;45208;-68
2022/04/14 01:47:12;;;;;;;18.08;11.13;;;;;;;10.07;98.22;101849.03;2088903;28;45255;-68
2022/04/14 01:48:14;;;;;;;15.50;10.07;;;;;;;10.07;98.03;101844.56;2087874;28;43846;-68
2022/04/14 01:49:16;;;;;;;15.75;11.57;;;;;;;10.07;98.08;101849.03;2088326;28;44277;-67
2022/04/14 01:50:18;;;;;;;18.40;11.73;;;;;;;10.06;98.27;101849.91;2089143;28;24116;-68
2022/04/14 01:51:20;;;;;;;15.35;11.93;;;;;;;10.08;98.36;101848.13;2087589;28;45466;-68
2022/04/14 01:52:21;;;;;;;20.23;12.43;;;;;;;10.09;98.28;101857.94;2087851;28;44515;-68
2022/04/14 01:53:23;;;;;;;20.08;11.95;;;;;;;10.08;99.00;101859.69;2088850;28;31279;-68
2022/04/14 01:54:25;;;;;;;19.38;12.32;;;;;;;10.07;98.41;101859.75;2088180;28;42844;-68
2022/04/14 01:55:26;;;;;;;18.10;11.75;;;;;;;10.08;98.27;101864.16;2088530;28;43875;-68
2022/04/14 01:56:31;;;;;;;18.02;12.02;;;;;;;10.09;98.73;101863.28;2089029;28;20045;-68
2022/04/14 01:57:32;;;;;;;18.10;11.70;;;;;;;10.06;98.72;101860.63;2088413;28;45274;-68
2022/04/14 01:58:34;;;;;;;14.80;10.60;;;;;;;10.05;98.26;101858.84;2088857;28;32637;-68
2022/04/14 01:59:36;;;;;;;16.30;11.73;;;;;;;10.05;98.48;101864.19;2088554;28;43774;-68
2022/04/14 02:00:37;;;;;;;19.00;12.07;;;;;;;10.05;98.48;101864.19;2088263;28;46366;-68
2022/04/14 02:01:39;;;;;;;16.17;10.45;;;;;;;10.03;98.18;101864.22;2088120;28;40268;-68
2022/04/14 02:02:41;;;;;;;15.18;11.52;;;;;;;10.03;98.00;101863.31;2089313;28;20093;-68
2022/04/14 02:03:43;;;;;;;19.02;11.13;;;;;;;10.00;97.76;101855.31;2087509;28;44490;-69
2022/04/14 02:04:45;;;;;;;18.20;10.85;;;;;;;9.99;98.41;101858.88;2087566;28;43188;-67
2022/04/14 02:05:46;;;;;;;17.63;11.73;;;;;;;10.00;98.43;101852.66;2087793;28;45144;-68
2022/04/14 02:06:48;;;;;;;16.17;10.57;;;;;;;9.96;98.40;101856.22;2087881;28;37711;-67
2022/04/14 02:07:50;;;;;;;15.35;10.40;;;;;;;9.97;98.74;101856.22;2079495;28;43087;-68
2022/04/14 02:08:51;;;;;;;16.02;11.88;;;;;;;10.01;99.09;101855.28;2079495;28;45584;-68
2022/04/14 02:09:53;;;;;;;19.50;11.55;;;;;;;9.97;98.70;101850.84;2088158;28;36983;-68
2022/04/14 02:10:55;;;;;;;17.92;11.85;;;;;;;9.97;98.65;101853.53;2087492;28;46444;-68
2022/04/14 02:11:56;;;;;;;17.13;12.70;;;;;;;10.01;98.51;101857.97;2087791;28;43332;-68
2022/04/14 02:12:59;;;;;;;18.13;12.90;;;;;;;10.01;98.80;101857.97;2088373;28;26923;-69
2022/04/14 02:14:01;;;;;;;19.65;12.55;;;;;;;10.03;99.40;101855.28;2088109;28;44507;-68
2022/04/14 02:15:03;;;;;;;15.32;11.18;;;;;;;9.99;98.83;101862.44;2088072;28;44141;-69
2022/04/14 02:16:07;;;;;;;16.25;11.55;;;;;;;9.99;98.26;101861.56;2088218;28;46234;-69
2022/04/14 02:17:09;;;;;;;18.63;11.50;;;;;;;9.99;98.28;101858.88;2088559;28;31639;-68
2022/04/14 02:18:10;;;;;;;18.58;12.40;;;;;;;9.97;98.63;101860.69;2088056;28;45142;-68
2022/04/14 02:19:12;;;;;;;16.98;12.25;;;;;;;9.97;98.77;101864.22;2088213;28;46274;-68
2022/04/14 02:20:14;;;;;;;19.17;10.95;;;;;;;9.97;98.90;101860.69;2088447;28;43543;-68
2022/04/14 02:21:15;;;;;;;16.10;11.40;;;;;;;9.96;98.39;101869.59;2087820;28;45153;-68
2022/04/14 02:22:18;;;;;;;17.75;11.00;;;;;;;9.96;98.95;101861.56;2088303;28;44597;-69
2022/04/14 02:23:20;;;;;;;22.55;13.13;;;;;;;9.99;99.05;101866.91;2088010;28;45168;-68
2022/04/14 02:24:22;;;;;;;18.90;12.38;;;;;;;9.97;98.65;101856.22;2088316;28;46498;-68
2022/04/14 02:25:24;;;;;;;22.33;13.57;;;;;;;9.96;98.42;101854.44;2088700;28;32714;-67
2022/04/14 02:26:26;;;;;;;22.73;13.55;;;;;;;10.01;99.27;101859.75;2088346;28;43015;-68
2022/04/14 02:27:28;;;;;;;20.10;12.88;;;;;;;9.99;99.01;101858.88;2087916;28;44624;-68
2022/04/14 02:28:29;;;;;;;21.40;13.32;;;;;;;10.01;98.84;101862.44;2088460;28;45237;-69
2022/04/14 02:29:31;;;;;;;19.70;12.38;;;;;;;9.97;98.44;101856.22;2088733;28;22207;-68
2022/04/14 02:30:33;;;;;;;20.08;13.27;;;;;;;9.96;98.78;101864.25;2088524;28;26829;-69
2022/04/14 02:31:35;;;;;;;19.15;12.23;;;;;;;9.96;98.46;101866.91;2087616;28;42958;-68
2022/04/14 02:32:37;;;;;;;17.85;11.20;;;;;;;9.95;98.77;101868.72;2088128;28;46329;-68
2022/04/14 02:33:38;;;;;;;17.38;10.68;;;;;;;9.93;98.72;101875.84;2088149;28;36825;-68
2022/04/14 02:34:40;;;;;;;15.68;10.63;;;;;;;9.90;98.75;101870.50;2088496;28;41785;-68
2022/04/14 02:35:42;;;;;;;18.92;11.38;;;;;;;9.87;97.99;101873.19;2088044;28;43298;-68
2022/04/14 02:36:44;;;;;;;20.83;12.95;;;;;;;9.88;98.75;101870.50;2088018;28;44272;-68
2022/04/14 02:37:47;;;;;;;17.95;11.73;;;;;;;9.87;98.61;101871.44;2087828;28;44268;-68
2022/04/14 02:38:49;;;;;;;18.52;12.68;;;;;;;9.85;98.45;101870.56;2088340;28;44111;-68
2022/04/14 02:39:51;;;;;;;22.90;13.20;;;;;;;9.89;98.82;101871.44;2087998;28;44198;-67
2022/04/14 02:40:53;;;;;;;22.70;12.85;;;;;;;9.88;98.38;101872.31;2088435;28;45658;-68
2022/04/14 02:41:55;;;;;;;20.33;12.77;;;;;;;9.87;98.90;101871.44;2087444;28;45340;-68
2022/04/14 02:42:59;;;;;;;19.95;13.00;;;;;;;9.87;98.64;101867.84;2088190;28;46149;-68
2022/04/14 02:44:01;;;;;;;20.02;12.57;;;;;;;9.87;98.87;101866.09;2087106;28;41523;-68
2022/04/14 02:45:03;;;;;;;19.90;13.23;;;;;;;9.89;98.75;101869.63;2087361;28;43055;-68
2022/04/14 02:46:05;;;;;;;25.55;14.32;;;;;;;9.89;99.26;101864.28;2087057;28;44242;-68
2022/04/14 02:47:09;;;;;;;25.40;14.02;;;;;;;9.89;98.90;101868.75;2087743;28;44495;-67
2022/04/14 02:48:10;;;;;;;20.88;12.88;;;;;;;9.87;98.79;101862.50;2087328;28;46329;-69
2022/04/14 02:49:12;;;;;;;19.90;13.40;;;;;;;9.85;99.15;101867.88;2088494;28;42565;-69
2022/04/14 02:50:14;;;;;;;19.17;13.32;;;;;;;9.86;99.35;101858.94;2087686;28;43904;-69
2022/04/14 02:51:16;;;;;;;23.20;13.13;;;;;;;9.86;98.94;101866.97;2087270;28;47118;-67
2022/04/14 02:52:17;;;;;;;23.80;14.40;;;;;;;9.87;99.38;101862.50;2087752;28;37303;-69
2022/04/14 02:53:21;;;;;;;22.73;14.20;;;;;;;9.86;99.27;101858.06;2088194;28;29470;-68
2022/04/14 02:54:23;;;;;;;21.90;13.90;;;;;;;9.87;98.70;101860.75;2087926;28;42039;-69
2022/04/14 02:55:24;;;;;;;24.23;13.65;;;;;;;9.88;99.39;101861.63;2088730;28;20041;-69
2022/04/14 02:56:26;;;;;;;21.05;13.13;;;;;;;9.84;99.41;101866.09;2088031;28;43891;-68
2022/04/14 02:57:30;;;;;;;21.08;12.98;;;;;;;9.86;98.89;101858.94;2088352;28;36626;-69
2022/04/14 02:58:33;;;;;;;22.10;13.25;;;;;;;9.81;99.02;101854.53;2087809;28;46303;-69
2022/04/14 02:59:36;;;;;;;19.73;13.18;;;;;;;9.81;98.90;101855.41;2087614;28;43320;-68
2022/04/14 03:00:39;;;;;;;21.02;13.65;;;;;;;9.81;99.32;101860.75;2088833;28;20046;-68
2022/04/14 03:01:41;;;;;;;22.40;13.40;;;;;;;9.80;99.45;101853.63;2087187;28;42233;-68
2022/04/14 03:02:42;;;;;;;22.13;14.80;;;;;;;9.81;99.24;101855.41;2087073;28;43797;-69
2022/04/14 03:03:44;;;;;;;17.67;12.57;;;;;;;9.78;99.33;101855.44;2087042;28;43863;-69
2022/04/14 03:04:46;;;;;;;18.73;13.10;;;;;;;9.75;98.91;101856.31;2087936;28;43804;-69
2022/04/14 03:05:47;;;;;;;20.45;13.45;;;;;;;9.75;99.06;101860.78;2088263;28;41420;-69
2022/04/14 03:06:50;;;;;;;20.67;14.05;;;;;;;9.73;99.16;101859.91;2088133;28;44935;-69
2022/04/14 03:07:52;;;;;;;22.52;14.20;;;;;;;9.72;99.30;101852.78;2088019;28;42035;-68
2022/04/14 03:08:53;;;;;;;20.55;13.80;;;;;;;9.72;99.32;101850.09;2087876;28;43070;-69
2022/04/14 03:09:55;;;;;;;21.42;14.50;;;;;;;9.69;99.31;101855.44;2088042;28;42038;-69
2022/04/14 03:10:57;;;;;;;20.13;13.02;;;;;;;9.68;98.97;101853.69;2087870;28;39518;-69
2022/04/14 03:11:59;;;;;;;22.45;14.25;;;;;;;9.70;99.57;101851.91;2088117;28;35338;-68
2022/04/14 03:13:01;;;;;;;25.27;14.15;;;;;;;9.72;99.86;101852.78;2087916;28;20505;-69
2022/04/14 03:14:03;;;;;;;25.33;14.73;;;;;;;9.70;99.99;101860.78;2087312;28;45519;-69
2022/04/14 03:15:05;;;;;;;23.35;14.95;;;;;;;9.71;100.00;101853.69;2087512;28;44601;-69
2022/04/14 03:16:09;;;;;;;24.85;15.38;;;;;;;9.69;99.23;101858.13;2087996;28;43751;-68
2022/04/14 03:17:11;;;;;;;25.55;15.10;;;;;;;9.68;99.75;101851.91;2087842;28;36178;-69
2022/04/14 03:18:15;;;;;;;23.98;15.15;;;;;;;9.67;99.67;101851.91;2087919;28;42183;-68
2022/04/14 03:19:17;;;;;;;27.83;15.13;;;;;;;9.61;99.33;101862.63;2088498;28;20111;-69
2022/04/14 03:20:19;;;;;;;21.08;13.35;;;;;;;9.59;99.10;101854.63;2088196;28;44624;-68
2022/04/14 03:21:20;;;;;;;20.30;13.60;;;;;;;9.58;99.51;101859.97;2086712;28;42425;-69
2022/04/14 03:22:22;;;;;;;26.90;14.95;;;;;;;9.59;99.09;101856.41;2078947;28;42388;-69
2022/04/14 03:23:24;;;;;;;25.25;15.38;;;;;;;9.58;99.61;101857.28;2087557;28;43558;-69
2022/04/14 03:24:26;;;;;;;24.33;15.23;;;;;;;9.55;99.76;101859.09;2087901;28;45504;-68
2022/04/14 03:25:27;;;;;;;26.42;15.05;;;;;;;9.56;99.02;101854.63;2087733;28;32956;-69
2022/04/14 03:26:29;;;;;;;31.67;16.55;;;;;;;9.58;99.63;101854.63;2086981;28;42200;-69
2022/04/14 03:27:31;;;;;;;27.02;14.73;;;;;;;9.53;99.14;101855.53;2087043;28;44281;-69
2022/04/14 03:28:32;;;;;;;24.08;15.82;;;;;;;9.54;99.29;101851.94;2087527;28;41842;-68
2022/04/14 03:29:36;;;;;;;27.33;15.48;;;;;;;9.53;100.00;101854.66;2087859;28;33862;-69
2022/04/14 03:30:39;;;;;;;25.08;15.13;;;;;;;9.53;100.00;101851.97;2087647;28;20811;-69
2022/04/14 03:31:40;;;;;;;23.52;15.82;;;;;;;9.53;100.00;101854.66;2087050;28;42409;-69
2022/04/14 03:32:44;;;;;;;25.00;14.27;;;;;;;9.49;99.57;101850.19;2087709;28;44261;-69
2022/04/14 03:33:46;;;;;;;27.33;15.73;;;;;;;9.44;99.40;101850.22;2087697;28;45959;-69
2022/04/14 03:34:48;;;;;;;23.52;15.30;;;;;;;9.43;99.25;101848.44;2088578;28;20049;-69
2022/04/14 03:35:50;;;;;;;26.05;15.63;;;;;;;9.44;99.77;101846.66;2087350;28;44254;-68
2022/04/14 03:36:52;;;;;;;27.38;15.70;;;;;;;9.41;100.00;101844.88;2087668;28;41178;-68
2022/04/14 03:37:54;;;;;;;27.35;16.10;;;;;;;9.41;99.48;101846.69;2087440;28;43053;-69
2022/04/14 03:38:57;;;;;;;25.38;16.85;;;;;;;9.43;100.00;101843.09;2087634;28;45609;-69
2022/04/14 03:39:59;;;;;;;28.15;16.65;;;;;;;9.43;100.00;101845.75;2087466;28;43794;-69
2022/04/14 03:41:04;;;;;;;29.77;17.30;;;;;;;9.45;100.00;101845.75;2078665;28;44955;-70
2022/04/14 03:42:08;;;;;;;31.73;18.33;;;;;;;9.42;100.00;101849.34;2071655;28;42211;-69
2022/04/14 03:43:09;;;;;;;24.63;16.35;;;;;;;9.39;100.00;101849.34;2087299;28;45506;-69
2022/04/14 03:44:11;;;;;;;23.48;15.23;;;;;;;9.38;99.76;101849.34;2086625;28;44305;-69
2022/04/14 03:45:13;;;;;;;31.00;16.73;;;;;;;9.38;100.00;101855.56;2087336;28;43716;-69
2022/04/14 03:46:19;;;;;;;29.98;18.15;;;;;;;9.38;99.65;101852.03;2088494;28;20816;-69
2022/04/14 03:47:21;;;;;;;31.95;17.95;;;;;;;9.37;100.00;101843.13;2087533;28;42263;-69
2022/04/14 03:48:22;;;;;;;25.20;16.00;;;;;;;9.34;100.00;101843.13;2087477;28;45374;-69
2022/04/14 03:49:24;;;;;;;27.63;17.80;;;;;;;9.36;100.00;101846.69;2088104;28;20826;-69
2022/04/14 03:50:26;;;;;;;30.98;17.67;;;;;;;9.35;99.78;101840.44;2087548;28;40190;-69
2022/04/14 03:51:28;;;;;;;25.65;16.65;;;;;;;9.32;100.00;101847.59;2087616;28;45939;-69
2022/04/14 03:52:33;;;;;;;28.27;17.27;;;;;;;9.31;100.00;101848.47;2087533;28;43396;-69
2022/04/14 03:53:34;;;;;;;26.15;16.80;;;;;;;9.28;99.65;101848.50;2087749;28;44151;-69
2022/04/14 03:54:36;;;;;;;29.38;18.17;;;;;;;9.32;100.00;101852.94;2087401;28;46340;-69
2022/04/14 03:55:38;;;;;;;26.73;16.73;;;;;;;9.28;100.00;101853.84;2087779;28;36222;-69
2022/04/14 03:56:39;;;;;;;25.73;16.75;;;;;;;9.28;100.00;101851.19;2087337;28;45548;-69
2022/04/14 03:57:41;;;;;;;35.10;19.60;;;;;;;9.29;100.00;101855.59;2087306;28;46101;-68
2022/04/14 03:58:43;;;;;;;29.95;17.98;;;;;;;9.29;100.00;101852.94;2087422;28;45050;-69
2022/04/14 03:59:44;;;;;;;31.02;18.73;;;;;;;9.26;99.98;101858.28;2087432;28;43983;-69
2022/04/14 04:00:46;;;;;;;29.27;16.73;;;;;;;9.22;100.00;101849.38;2087775;28;41181;-69
2022/04/14 04:01:51;;;;;;;28.02;17.40;;;;;;;9.24;100.00;101862.75;2087416;28;45584;-68
2022/04/14 04:02:55;;;;;;;26.55;15.75;;;;;;;9.22;100.00;101859.19;2088445;28;20928;-70
2022/04/14 04:03:56;;;;;;;28.15;16.33;;;;;;;9.16;99.79;101855.63;2088184;28;37022;-69
2022/04/14 04:04:59;;;;;;;26.73;16.80;;;;;;;9.15;100.00;101859.22;2088400;28;20119;-69
2022/04/14 04:06:01;;;;;;;26.33;16.75;;;;;;;9.16;100.00;101858.31;2087082;28;44870;-69
2022/04/14 04:07:04;;;;;;;29.95;18.65;;;;;;;9.18;100.00;101858.31;2087944;28;45504;-70
2022/04/14 04:08:07;;;;;;;30.13;16.35;;;;;;;9.15;99.72;101856.56;2087630;28;46516;-69
2022/04/14 04:09:09;;;;;;;33.40;19.23;;;;;;;9.14;100.00;101852.09;2087364;28;43763;-69
2022/04/14 04:10:10;;;;;;;25.75;16.77;;;;;;;9.14;100.00;101849.41;2087746;28;44057;-68
2022/04/14 04:11:12;;;;;;;27.58;17.70;;;;;;;9.11;100.00;101848.53;2087740;28;44420;-69
2022/04/14 04:12:14;;;;;;;30.63;17.38;;;;;;;9.11;100.00;101852.09;2088568;28;20099;-69
2022/04/14 04:13:16;;;;;;;29.73;18.27;;;;;;;9.10;99.84;101847.66;2087203;28;44900;-69
2022/04/14 04:14:17;;;;;;;36.83;20.40;;;;;;;9.11;100.00;101852.09;2087658;28;41109;-69
2022/04/14 04:15:20;;;;;;;29.40;18.80;;;;;;;9.09;100.00;101853.88;2086911;28;20156;-69
2022/04/14 04:16:22;;;;;;;32.67;18.70;;;;;;;9.09;100.00;101853.88;2087049;28;43863;-69
2022/04/14 04:17:23;;;;;;;26.98;16.98;;;;;;;9.05;100.00;101854.78;2087577;28;44032;-69
2022/04/14 04:18:25;;;;;;;33.85;20.40;;;;;;;9.06;100.00;101855.66;2087085;28;44944;-69
2022/04/14 04:19:27;;;;;;;29.85;17.48;;;;;;;9.03;100.00;101855.69;2087173;28;41070;-69
2022/04/14 04:20:28;;;;;;;31.52;19.10;;;;;;;9.02;100.00;101856.56;2087689;28;41715;-69
2022/04/14 04:21:32;;;;;;;39.03;20.98;;;;;;;9.01;99.93;101861.03;2087234;28;45832;-69
2022/04/14 04:22:34;;;;;;;36.40;20.52;;;;;;;9.03;100.00;101856.56;2087319;28;42790;-68
2022/04/14 04:23:35;;;;;;;34.13;18.95;;;;;;;9.05;100.00;101867.25;2086556;28;44993;-69
2022/04/14 04:24:38;;;;;;;36.45;21.80;;;;;;;9.03;100.00;101869.03;2086841;28;41186;-69
2022/04/14 04:25:39;;;;;;;39.58;21.25;;;;;;;9.02;100.00;101862.78;2087070;28;43312;-69
2022/04/14 04:26:41;;;;;;;31.17;19.25;;;;;;;9.06;100.00;101861.91;2087818;28;39600;-70
2022/04/14 04:27:43;;;;;;;30.67;19.40;;;;;;;9.03;100.00;101864.59;2087012;28;45169;-69
2022/04/14 04:28:44;;;;;;;38.53;23.15;;;;;;;9.08;100.00;101867.22;2086621;28;46153;-70
2022/04/14 04:29:46;;;;;;;34.00;19.50;;;;;;;9.05;100.00;101869.94;2088493;28;20041;-69
2022/04/14 04:30:53;;;;;;;36.58;20.23;;;;;;;9.05;100.00;101867.25;2088330;28;20046;-69
2022/04/14 04:31:55;;;;;;;37.92;21.15;;;;;;;9.07;100.00;101866.34;2087699;28;36799;-69
2022/04/14 04:32:56;;;;;;;38.25;21.50;;;;;;;9.09;100.00;101864.56;2087488;28;43574;-70
2022/04/14 04:33:58;;;;;;;40.30;23.10;;;;;;;9.13;100.00;101862.78;2086444;28;44282;-68
2022/04/14 04:35:04;;;;;;;35.70;21.23;;;;;;;9.08;100.00;101868.16;2087287;28;20807;-69
2022/04/14 04:36:07;;;;;;;45.58;24.58;;;;;;;9.13;100.00;101868.13;2086988;28;43152;-70
2022/04/14 04:37:09;;;;;;;45.80;25.00;;;;;;;9.14;100.00;101867.22;2087962;28;20045;-69
2022/04/14 04:38:10;;;;;;;37.97;21.95;;;;;;;9.10;100.00;101862.81;2087179;28;43305;-69
2022/04/14 04:39:12;;;;;;;42.33;23.63;;;;;;;9.13;100.00;101865.44;2087307;28;45288;-69
2022/04/14 04:40:14;;;;;;;41.92;23.42;;;;;;;9.09;100.00;101864.56;2088469;28;20247;-70
2022/04/14 04:41:16;;;;;;;38.38;21.90;;;;;;;9.06;100.00;101867.25;2087412;28;43755;-68
2022/04/14 04:42:17;;;;;;;36.10;20.63;;;;;;;9.05;100.00;101875.28;2087353;28;43957;-70
2022/04/14 04:43:20;;;;;;;35.95;20.33;;;;;;;9.02;100.00;101868.13;2088055;28;20096;-69
2022/04/14 04:44:23;;;;;;;29.90;19.10;;;;;;;9.01;100.00;101870.81;2087038;28;36141;-70
2022/04/14 04:45:25;;;;;;;36.42;21.05;;;;;;;8.98;100.00;101866.38;2078586;28;43544;-70